Time;durP1;ratioP1;P1;durP2;ratioP2;P2;SDS_P1;SDS_P2;PMS_P1;PMS_P2;Temp;Humidity;BMP_temperature;BMP_pressure;BME280_temperature;BME280_humidity;BME280_pressure;Samples;Min_cycle;Max_cycle;Signal;HPM_P1;HPM_P2
2022/08/01 00:01:49;;;;;;;5.55;3.30;;;19.30;99.90;;;;;;4835125;29;20024;-33
2022/08/01 00:04:15;;;;;;;7.40;4.55;;;19.30;99.90;;;;;;4839153;29;20438;-36
2022/08/01 00:06:40;;;;;;;7.43;3.30;;;19.30;99.90;;;;;;4837835;29;20075;-33
2022/08/01 00:09:06;;;;;;;5.28;3.03;;;19.20;99.90;;;;;;4836842;29;20041;-31
2022/08/01 00:11:31;;;;;;;4.88;3.17;;;19.20;99.90;;;;;;4836652;29;20041;-37
2022/08/01 00:13:57;;;;;;;7.80;3.30;;;19.20;99.90;;;;;;4836937;29;20611;-36
2022/08/01 00:16:23;;;;;;;5.40;3.53;;;19.20;99.90;;;;;;4840180;29;20505;-37
2022/08/01 00:18:51;;;;;;;6.93;3.50;;;19.20;99.90;;;;;;4839556;29;20314;-35
2022/08/01 00:21:17;;;;;;;10.80;4.60;;;19.20;99.90;;;;;;4843967;29;20068;-36
2022/08/01 00:23:45;;;;;;;5.78;3.47;;;19.20;99.90;;;;;;4821465;29;20034;-34
2022/08/01 00:26:11;;;;;;;8.27;4.00;;;19.30;99.90;;;;;;4839771;29;20084;-38
2022/08/01 00:28:37;;;;;;;5.27;3.57;;;19.20;99.90;;;;;;4840836;29;20623;-38
2022/08/01 00:31:03;;;;;;;8.32;4.95;;;19.20;99.90;;;;;;4837061;29;20381;-41
2022/08/01 00:33:28;;;;;;;5.88;4.00;;;19.20;99.90;;;;;;4839020;29;20042;-35
2022/08/01 00:35:54;;;;;;;10.57;5.20;;;19.30;99.90;;;;;;4844843;29;20114;-33
2022/08/01 00:38:20;;;;;;;10.95;5.20;;;19.30;99.90;;;;;;4841245;29;20517;-33
2022/08/01 00:40:46;;;;;;;10.00;5.40;;;19.20;99.90;;;;;;4837923;29;20057;-36
2022/08/01 00:43:12;;;;;;;9.60;5.82;;;19.30;99.90;;;;;;4841528;29;20534;-34
2022/08/01 00:45:37;;;;;;;15.50;6.57;;;19.30;99.90;;;;;;4844682;29;20048;-37
2022/08/01 00:48:03;;;;;;;9.43;5.72;;;19.30;99.90;;;;;;4827867;29;20478;-32
2022/08/01 00:50:29;;;;;;;11.38;5.20;;;19.30;99.90;;;;;;4841264;29;20029;-38
2022/08/01 00:52:56;;;;;;;9.77;4.75;;;19.30;99.90;;;;;;4852331;29;20037;-37
2022/08/01 00:55:22;;;;;;;9.88;4.85;;;19.30;99.90;;;;;;4856206;29;20025;-37
2022/08/01 00:57:49;;;;;;;12.20;4.47;;;19.20;99.90;;;;;;4839471;29;20172;-34
2022/08/01 01:00:15;;;;;;;10.43;5.28;;;19.20;99.90;;;;;;4852360;29;20073;-42
2022/08/01 01:02:40;;;;;;;10.10;4.47;;;19.20;99.90;;;;;;4856992;29;20485;-33
2022/08/01 01:05:07;;;;;;;10.25;5.00;;;19.30;99.90;;;;;;4839298;29;20042;-39
2022/08/01 01:07:54;;;;;;;10.68;4.88;;;19.30;99.90;;;;;;4842531;29;20398;-40
2022/08/01 01:10:32;;;;;;;10.57;4.18;;;19.30;99.90;;;;;;4833343;29;20543;-36
2022/08/01 01:13:10;;;;;;;;;;;19.20;99.90;;;;;;4826577;29;20040;-34
2022/08/01 01:15:47;;;;;;;6.30;3.80;;;19.30;99.90;;;;;;4846653;29;20014;-36
2022/08/01 01:18:24;;;;;;;6.35;4.00;;;19.20;99.90;;;;;;4836567;29;20029;-34
2022/08/01 01:21:24;;;;;;;10.82;5.07;;;19.20;99.90;;;;;;4850980;29;20075;-37
2022/08/01 01:24:27;;;;;;;8.95;4.70;;;19.20;99.90;;;;;;4824433;29;20045;-40
2022/08/01 01:27:04;;;;;;;9.32;4.75;;;19.30;99.90;;;;;;4849400;29;20048;-35
2022/08/01 01:29:42;;;;;;;10.45;5.13;;;19.30;99.90;;;;;;4846438;29;20487;-32
2022/08/01 01:32:19;;;;;;;;;;;19.30;99.90;;;;;;4843265;29;20045;-37
2022/08/01 01:34:47;;;;;;;;;;;19.30;99.90;;;;;;4837449;29;20382;-37
2022/08/01 01:37:33;;;;;;;11.85;5.65;;;19.20;99.90;;;;;;4846630;29;19962;-39
2022/08/01 01:40:00;;;;;;;12.23;6.30;;;19.20;99.90;;;;;;4838907;29;20388;-36
2022/08/01 01:42:26;;;;;;;25.00;5.38;;;19.20;99.90;;;;;;4832892;29;21107;-38
2022/08/01 01:44:55;;;;;;;12.60;6.25;;;19.20;99.90;;;;;;4855474;29;20499;-36
2022/08/01 01:47:22;;;;;;;15.20;5.70;;;19.20;99.90;;;;;;4839181;29;20117;-38
2022/08/01 01:49:48;;;;;;;13.02;5.72;;;19.20;99.90;;;;;;4846227;29;20087;-40
2022/08/01 01:52:16;;;;;;;14.52;5.40;;;19.20;99.90;;;;;;4837626;29;20419;-39
2022/08/01 01:54:47;;;;;;;19.38;6.85;;;19.10;99.90;;;;;;4841119;29;20098;-41
2022/08/01 01:57:15;;;;;;;11.93;5.78;;;19.20;99.90;;;;;;4829453;29;20446;-32
2022/08/01 01:59:41;;;;;;;12.13;5.13;;;19.20;99.90;;;;;;4845558;29;20125;-33
2022/08/01 02:02:08;;;;;;;10.75;5.30;;;19.10;99.90;;;;;;4843793;29;20037;-32
2022/08/01 02:04:42;;;;;;;9.60;4.85;;;19.10;99.90;;;;;;4849054;29;20033;-37
2022/08/01 02:07:12;;;;;;;15.02;4.88;;;19.10;99.90;;;;;;4832315;29;20532;-35
2022/08/01 02:09:39;;;;;;;10.95;4.60;;;19.10;99.90;;;;;;4836546;29;20489;-38
2022/08/01 02:12:06;;;;;;;10.80;4.47;;;19.10;99.90;;;;;;4834920;29;20041;-37
2022/08/01 02:14:35;;;;;;;10.53;4.97;;;19.10;99.90;;;;;;4844789;29;20037;-40
2022/08/01 02:17:03;;;;;;;11.20;4.47;;;19.10;99.90;;;;;;4844618;29;20097;-35
2022/08/01 02:19:30;;;;;;;8.65;4.53;;;19.00;99.90;;;;;;4836382;29;20026;-33
2022/08/01 02:22:00;;;;;;;10.82;4.72;;;19.00;99.90;;;;;;4841517;29;20033;-38
2022/08/01 02:24:37;;;;;;;8.80;4.63;;;18.90;99.90;;;;;;4838230;29;20041;-36
2022/08/01 02:27:09;;;;;;;11.48;4.75;;;18.90;99.90;;;;;;4839040;29;20471;-38
2022/08/01 02:29:46;;;;;;;10.55;4.97;;;18.90;99.90;;;;;;4831870;29;20494;-39
2022/08/01 02:32:23;;;;;;;9.88;4.25;;;18.90;99.90;;;;;;4836072;29;20044;-39
2022/08/01 02:34:51;;;;;;;8.95;3.97;;;18.90;99.90;;;;;;4832699;29;20479;-45
2022/08/01 02:37:18;;;;;;;5.82;3.47;;;18.80;99.90;;;;;;4836316;29;20175;-37
2022/08/01 02:39:47;;;;;;;;;;;18.80;99.90;;;;;;4839088;29;20555;-36
2022/08/01 02:42:15;;;;;;;7.97;4.05;;;18.90;99.90;;;;;;4838545;29;20522;-37
2022/08/01 02:44:43;;;;;;;13.77;4.80;;;18.90;99.90;;;;;;4844611;29;20038;-39
2022/08/01 02:47:10;;;;;;;8.93;5.30;;;18.90;99.90;;;;;;4836784;29;20038;-35
2022/08/01 02:49:40;;;;;;;6.63;5.17;;;18.90;99.90;;;;;;4848058;29;20040;-38
2022/08/01 02:52:12;;;;;;;10.38;5.93;;;18.90;99.90;;;;;;4841382;29;20330;-33
2022/08/01 02:54:39;;;;;;;12.40;6.07;;;19.00;99.90;;;;;;4829336;29;20049;-34
2022/08/01 02:57:07;;;;;;;9.45;6.30;;;18.90;99.90;;;;;;4844983;29;20041;-36
2022/08/01 02:59:37;;;;;;;13.95;6.13;;;18.90;99.90;;;;;;4841540;29;20113;-43
2022/08/01 03:02:04;;;;;;;8.43;4.95;;;18.90;99.90;;;;;;4845035;29;20032;-34
2022/08/01 03:04:32;;;;;;;7.97;5.38;;;18.90;99.90;;;;;;4841082;29;20529;-39
2022/08/01 03:06:59;;;;;;;14.70;6.00;;;18.90;99.90;;;;;;4839173;29;20049;-36
2022/08/01 03:09:27;;;;;;;11.98;6.35;;;18.90;99.90;;;;;;4852625;29;20372;-41
2022/08/01 03:11:56;;;;;;;12.73;6.63;;;18.90;99.90;;;;;;4836262;29;20041;-38
2022/08/01 03:14:24;;;;;;;9.77;5.82;;;18.90;99.90;;;;;;4842378;29;20045;-38
2022/08/01 03:16:51;;;;;;;;;;;18.90;99.90;;;;;;4840293;29;20526;-38
2022/08/01 03:19:18;;;;;;;10.93;4.72;;;18.90;99.90;;;;;;4858808;29;20334;-38
2022/08/01 03:21:45;;;;;;;7.40;4.97;;;18.90;99.90;;;;;;4831109;29;21512;-39
2022/08/01 03:24:12;;;;;;;12.65;5.40;;;18.90;99.90;;;;;;4850135;29;20561;-36
2022/08/01 03:26:39;;;;;;;8.30;4.75;;;18.90;99.90;;;;;;4862610;29;20236;-55
2022/08/01 03:29:09;;;;;;;8.27;4.85;;;18.90;99.90;;;;;;4843728;29;20038;-37
2022/08/01 03:31:37;;;;;;;11.45;4.90;;;18.80;99.90;;;;;;4839376;29;20087;-38
2022/08/01 03:34:04;;;;;;;10.85;4.88;;;18.80;99.90;;;;;;4841853;29;20405;-37
2022/08/01 03:36:32;;;;;;;9.25;4.63;;;18.70;99.90;;;;;;4843466;29;20586;-32
2022/08/01 03:39:00;;;;;;;6.47;4.68;;;18.60;99.90;;;;;;4839532;29;20119;-38
2022/08/01 03:41:32;;;;;;;7.45;4.82;;;18.60;99.90;;;;;;4841488;29;20050;-36
2022/08/01 03:44:05;;;;;;;10.00;5.03;;;18.60;99.90;;;;;;4842878;29;20036;-39
2022/08/01 03:46:40;;;;;;;7.45;4.75;;;18.60;99.90;;;;;;4853418;29;20533;-37
2022/08/01 03:49:11;;;;;;;7.97;4.53;;;18.60;99.90;;;;;;4839937;29;20120;-34
2022/08/01 03:51:38;;;;;;;8.45;4.85;;;18.50;99.90;;;;;;4841261;29;20794;-38
2022/08/01 03:54:04;;;;;;;13.77;5.67;;;18.50;99.90;;;;;;4841285;29;20569;-39
2022/08/01 03:56:32;;;;;;;10.55;4.50;;;18.50;99.90;;;;;;4838037;29;20505;-34
2022/08/01 03:58:59;;;;;;;6.85;4.88;;;18.50;99.90;;;;;;4842667;29;20162;-38
2022/08/01 04:01:26;;;;;;;10.02;4.20;;;18.50;99.90;;;;;;4839578;29;20538;-35
2022/08/01 04:03:52;;;;;;;12.37;4.73;;;18.40;99.90;;;;;;4850239;29;20053;-38
2022/08/01 04:06:18;;;;;;;6.22;4.50;;;18.30;99.90;;;;;;4852630;29;20739;-37
2022/08/01 04:08:55;;;;;;;8.95;4.22;;;18.30;99.90;;;;;;4848919;29;20039;-30
2022/08/01 04:11:22;;;;;;;7.70;3.70;;;18.30;99.90;;;;;;4838405;29;20030;-37
2022/08/01 04:13:48;;;;;;;6.38;3.78;;;18.30;99.90;;;;;;4845392;29;20143;-37
2022/08/01 04:16:13;;;;;;;4.72;3.67;;;18.30;99.90;;;;;;4838239;29;20112;-35
2022/08/01 04:18:39;;;;;;;11.02;3.65;;;18.30;99.90;;;;;;4840685;29;20086;-35
2022/08/01 04:21:05;;;;;;;6.38;4.10;;;18.30;99.90;;;;;;4840330;29;20358;-35
2022/08/01 04:23:32;;;;;;;6.57;3.78;;;18.30;99.90;;;;;;4843756;29;20543;-38
2022/08/01 04:26:01;;;;;;;5.20;3.75;;;18.30;99.90;;;;;;4826017;29;20506;-35
2022/08/01 04:28:47;;;;;;;7.65;3.90;;;18.30;99.90;;;;;;4846627;29;20041;-40
2022/08/01 04:31:15;;;;;;;10.80;4.28;;;18.30;99.90;;;;;;4844229;29;20549;-34
2022/08/01 04:33:45;;;;;;;7.80;4.38;;;18.30;99.90;;;;;;4839281;29;20075;-37
2022/08/01 04:36:14;;;;;;;7.60;4.20;;;18.40;99.90;;;;;;4841238;29;20738;-47
2022/08/01 04:38:42;;;;;;;16.52;5.13;;;18.40;99.90;;;;;;4825550;29;20036;-39
2022/08/01 04:41:12;;;;;;;7.78;4.78;;;18.50;99.90;;;;;;4827713;29;20582;-38
2022/08/01 04:43:38;;;;;;;15.18;4.60;;;18.50;99.90;;;;;;4840729;29;20530;-39
2022/08/01 04:46:06;;;;;;;6.45;3.92;;;18.60;99.90;;;;;;4850519;29;20045;-33
2022/08/01 04:48:34;;;;;;;6.65;4.95;;;18.60;99.90;;;;;;4838416;29;20333;-44
2022/08/01 04:51:00;;;;;;;14.05;4.30;;;18.60;99.90;;;;;;4846984;29;20057;-36
2022/08/01 04:53:26;;;;;;;6.35;4.22;;;18.60;99.90;;;;;;4833389;29;20491;-39
2022/08/01 04:55:52;;;;;;;8.60;4.85;;;18.60;99.90;;;;;;4848973;29;20537;-37
2022/08/01 04:58:18;;;;;;;10.82;4.53;;;18.60;99.90;;;;;;4845782;29;20025;-38
2022/08/01 05:00:43;;;;;;;5.90;3.85;;;18.60;99.90;;;;;;4849898;29;20060;-34
2022/08/01 05:03:09;;;;;;;9.30;4.70;;;18.60;99.90;;;;;;4848010;29;20038;-39
2022/08/01 05:05:35;;;;;;;10.68;5.00;;;18.60;99.90;;;;;;4855646;29;20040;-63
2022/08/01 05:08:00;;;;;;;17.10;4.43;;;18.60;99.90;;;;;;4847695;29;20037;-38
2022/08/01 05:10:27;;;;;;;10.13;5.00;;;18.50;99.90;;;;;;4842054;29;20485;-40
2022/08/01 05:12:53;;;;;;;5.20;2.45;;;18.50;99.90;;;;;;4840777;29;20511;-36
2022/08/01 05:15:19;;;;;;;2.40;2.20;;;18.40;99.90;;;;;;4840825;29;20052;-39
2022/08/01 05:17:44;;;;;;;5.03;1.58;;;18.30;99.90;;;;;;4842168;29;20086;-35
2022/08/01 05:20:11;;;;;;;2.03;1.70;;;18.30;99.90;;;;;;4841604;29;20028;-39
2022/08/01 05:22:37;;;;;;;3.08;1.52;;;18.20;99.90;;;;;;4844976;29;20090;-40
2022/08/01 05:25:04;;;;;;;1.40;1.30;;;18.20;99.90;;;;;;4822328;29;20807;-37
2022/08/01 05:27:30;;;;;;;1.30;1.20;;;18.30;99.90;;;;;;4843318;29;20634;-38
2022/08/01 05:29:56;;;;;;;2.25;1.83;;;18.30;99.90;;;;;;4855817;29;20332;-37
2022/08/01 05:32:22;;;;;;;1.95;1.50;;;18.30;99.90;;;;;;4854500;29;20580;-31
2022/08/01 05:34:47;;;;;;;3.10;1.38;;;18.30;99.90;;;;;;4849797;29;20061;-40
2022/08/01 05:37:13;;;;;;;3.08;1.40;;;18.30;99.90;;;;;;4854142;29;20021;-40
2022/08/01 05:39:38;;;;;;;2.22;1.50;;;18.40;99.90;;;;;;4837642;29;20619;-42
2022/08/01 05:42:04;;;;;;;1.40;1.30;;;18.40;99.90;;;;;;4845783;29;20104;-33
2022/08/01 05:44:30;;;;;;;3.13;1.50;;;18.40;99.90;;;;;;4838563;29;20057;-33
2022/08/01 05:46:55;;;;;;;3.63;1.20;;;18.40;99.90;;;;;;4838593;29;20041;-41
2022/08/01 05:49:21;;;;;;;2.50;1.40;;;18.40;99.90;;;;;;4847010;29;20040;-38
2022/08/01 05:51:46;;;;;;;4.68;1.75;;;18.50;99.90;;;;;;4845598;29;20034;-38
2022/08/01 05:54:12;;;;;;;2.08;1.58;;;18.50;99.90;;;;;;4842655;29;20386;-38
2022/08/01 05:56:38;;;;;;;2.30;1.90;;;18.50;99.90;;;;;;4852222;29;20053;-40
2022/08/01 05:59:03;;;;;;;3.80;2.22;;;18.50;99.90;;;;;;4845825;29;20025;-40
2022/08/01 06:01:29;;;;;;;3.75;1.92;;;18.50;99.90;;;;;;4831353;29;20426;-35
2022/08/01 06:03:54;;;;;;;3.28;1.85;;;18.50;99.90;;;;;;4833491;29;20082;-38
2022/08/01 06:06:21;;;;;;;3.05;1.95;;;18.50;99.90;;;;;;4840973;29;20054;-35
2022/08/01 06:08:47;;;;;;;4.85;1.77;;;18.50;99.90;;;;;;4833686;29;20030;-36
2022/08/01 06:11:12;;;;;;;2.95;2.30;;;18.60;99.90;;;;;;4838094;29;20692;-42
2022/08/01 06:13:38;;;;;;;2.47;1.92;;;18.60;99.90;;;;;;4838830;29;20085;-37
2022/08/01 06:16:04;;;;;;;6.63;2.33;;;18.60;99.90;;;;;;4840186;29;20035;-39
2022/08/01 06:21:14;;;;;;;7.85;3.03;;;18.70;99.90;;;;;;4839316;29;20525;-38
2022/08/01 06:23:41;;;;;;;6.57;2.53;;;18.70;99.90;;;;;;4838145;29;20029;-34
2022/08/01 06:26:07;;;;;;;9.40;2.22;;;18.80;99.90;;;;;;4831970;29;20539;-37
2022/08/01 06:28:33;;;;;;;7.72;2.67;;;18.80;99.90;;;;;;4835686;29;20041;-40
2022/08/01 06:30:59;;;;;;;5.90;2.45;;;18.70;99.90;;;;;;4834835;29;20472;-35
2022/08/01 06:33:25;;;;;;;7.47;2.63;;;18.80;99.90;;;;;;4834851;29;20475;-36
2022/08/01 06:35:51;;;;;;;8.65;3.03;;;18.80;99.90;;;;;;4835891;29;20042;-36
2022/08/01 06:38:16;;;;;;;4.78;2.70;;;18.90;99.90;;;;;;4834219;29;20061;-37
2022/08/01 06:40:42;;;;;;;13.45;3.13;;;18.80;99.90;;;;;;4835444;29;20563;-40
2022/08/01 06:43:07;;;;;;;6.05;2.35;;;18.80;99.90;;;;;;4834708;29;20090;-43
2022/08/01 06:45:33;;;;;;;9.23;3.05;;;18.80;99.90;;;;;;4833929;29;21801;-39
2022/08/01 06:47:59;;;;;;;8.82;2.65;;;18.80;99.90;;;;;;4835588;29;20125;-37
2022/08/01 06:50:24;;;;;;;10.88;2.40;;;18.70;99.90;;;;;;4835021;29;20033;-40
2022/08/01 06:52:50;;;;;;;7.22;2.13;;;18.70;99.90;;;;;;4832873;29;20082;-41
2022/08/01 06:55:16;;;;;;;11.40;2.78;;;18.70;99.90;;;;;;4831596;29;20048;-40
2022/08/01 06:57:49;;;;;;;14.90;2.33;;;18.80;99.90;;;;;;4835305;29;20074;-37
2022/08/01 07:00:18;;;;;;;10.68;2.05;;;18.80;99.90;;;;;;4838561;29;20034;-37
2022/08/01 07:02:44;;;;;;;11.13;2.58;;;18.80;99.90;;;;;;4835132;29;20052;-34
2022/08/01 07:05:10;;;;;;;15.52;2.05;;;18.80;99.90;;;;;;4833729;29;20518;-35
2022/08/01 07:07:36;;;;;;;14.50;2.67;;;18.80;99.90;;;;;;4834601;29;20037;-37
2022/08/01 07:10:03;;;;;;;14.60;2.63;;;18.80;99.90;;;;;;4834294;29;20179;-32
2022/08/01 07:12:28;;;;;;;16.17;3.45;;;18.80;99.90;;;;;;4836534;29;20480;-41
2022/08/01 07:14:54;;;;;;;8.77;2.00;;;18.80;99.90;;;;;;4833642;29;20048;-32
2022/08/01 07:17:20;;;;;;;13.75;3.03;;;18.80;99.90;;;;;;4834164;29;20518;-37
2022/08/01 07:19:46;;;;;;;9.80;2.10;;;18.80;99.90;;;;;;4836070;29;20196;-35
2022/08/01 07:22:12;;;;;;;7.97;1.88;;;18.80;99.90;;;;;;4834145;29;20459;-34
2022/08/01 07:24:37;;;;;;;10.48;2.30;;;18.90;99.90;;;;;;4834293;29;20034;-39
2022/08/01 07:27:03;;;;;;;16.27;2.63;;;18.90;99.90;;;;;;4831082;29;20528;-38
2022/08/01 07:29:28;;;;;;;7.20;1.98;;;18.90;99.90;;;;;;4833743;29;20037;-35
2022/08/01 07:31:56;;;;;;;5.30;1.70;;;18.90;99.90;;;;;;4830416;29;20044;-32
2022/08/01 07:34:22;;;;;;;11.30;2.42;;;19.00;99.90;;;;;;4838642;29;20120;-32
2022/08/01 07:36:48;;;;;;;9.20;2.80;;;19.30;99.90;;;;;;4833654;29;20148;-34
2022/08/01 07:39:13;;;;;;;9.13;1.50;;;19.30;99.90;;;;;;4836745;29;20564;-39
2022/08/01 07:41:39;;;;;;;12.18;2.60;;;19.30;99.90;;;;;;4832346;29;20414;-33
2022/08/01 07:44:04;;;;;;;8.23;1.80;;;19.40;99.90;;;;;;4833072;29;20086;-36
2022/08/01 07:46:30;;;;;;;13.90;2.33;;;19.40;99.90;;;;;;4832116;29;20057;-39
2022/08/01 07:48:58;;;;;;;7.95;1.65;;;19.40;99.90;;;;;;4837570;29;20033;-38
2022/08/01 07:51:24;;;;;;;6.70;1.42;;;19.40;99.90;;;;;;4830758;29;20251;-33
2022/08/01 07:53:50;;;;;;;14.27;2.70;;;19.40;99.90;;;;;;4831276;29;20053;-35
2022/08/01 07:56:16;;;;;;;4.85;1.40;;;19.30;99.90;;;;;;4832981;29;20038;-37
2022/08/01 07:58:41;;;;;;;7.47;1.67;;;19.30;99.90;;;;;;4835352;29;20041;-33
2022/08/01 08:01:07;;;;;;;10.57;1.55;;;19.40;99.90;;;;;;4815148;29;20639;-38
2022/08/01 08:03:33;;;;;;;7.97;1.50;;;19.30;99.90;;;;;;4833703;29;20065;-38
2022/08/01 08:05:58;;;;;;;5.38;1.17;;;19.30;99.90;;;;;;4839813;29;20045;-34
2022/08/01 08:08:24;;;;;;;11.10;2.13;;;19.50;99.90;;;;;;4842746;29;20490;-36
2022/08/01 08:10:50;;;;;;;3.20;1.23;;;19.70;99.90;;;;;;4837634;29;20045;-34
2022/08/01 08:13:15;;;;;;;4.93;1.30;;;19.90;99.90;;;;;;4834714;29;20060;-34
2022/08/01 08:15:41;;;;;;;8.60;2.13;;;20.10;99.90;;;;;;4839092;29;20483;-34
2022/08/01 08:18:07;;;;;;;10.55;1.40;;;20.30;99.90;;;;;;4840608;29;20105;-38
2022/08/01 08:20:33;;;;;;;7.57;1.35;;;20.40;99.90;;;;;;4814581;29;20034;-35
2022/08/01 08:22:59;;;;;;;3.88;1.25;;;20.50;99.90;;;;;;4836809;29;20081;-37
2022/08/01 08:25:25;;;;;;;5.53;1.15;;;20.60;99.90;;;;;;4845021;29;20068;-35
2022/08/01 08:27:51;;;;;;;5.85;1.52;;;20.70;99.90;;;;;;4830977;29;20053;-38
2022/08/01 08:30:17;;;;;;;7.57;1.20;;;20.70;99.90;;;;;;4836726;29;20498;-37
2022/08/01 08:32:42;;;;;;;9.13;2.17;;;20.50;99.90;;;;;;4818201;29;20133;-32
2022/08/01 08:35:09;;;;;;;12.40;2.15;;;20.40;99.90;;;;;;4837853;29;20045;-38
2022/08/01 08:37:35;;;;;;;10.75;1.80;;;20.30;99.90;;;;;;4834444;29;20136;-40
2022/08/01 08:40:02;;;;;;;6.00;0.68;;;20.30;99.90;;;;;;4842149;29;20486;-38
2022/08/01 08:42:46;;;;;;;3.88;1.17;;;20.50;99.90;;;;;;4833849;29;20053;-39
2022/08/01 08:45:12;;;;;;;2.15;1.20;;;20.60;99.90;;;;;;4834392;29;20102;-38
2022/08/01 08:47:39;;;;;;;7.88;1.10;;;20.50;99.90;;;;;;4831544;29;20041;-36
2022/08/01 08:50:06;;;;;;;5.88;1.17;;;20.40;99.90;;;;;;4833282;29;20053;-35
2022/08/01 08:52:37;;;;;;;12.87;1.23;;;20.50;99.90;;;;;;4834710;29;20520;-34
2022/08/01 08:55:03;;;;;;;13.40;1.00;;;20.40;99.90;;;;;;4832948;29;20495;-33
2022/08/01 08:57:30;;;;;;;7.30;2.08;;;20.30;99.90;;;;;;4835585;29;20026;-35
2022/08/01 08:59:56;;;;;;;2.97;0.70;;;20.20;99.90;;;;;;4833943;29;20030;-39
2022/08/01 09:02:23;;;;;;;6.63;1.10;;;20.00;99.90;;;;;;4833405;29;20291;-32
2022/08/01 09:04:50;;;;;;;6.55;1.15;;;20.00;99.90;;;;;;4835856;29;20041;-37
2022/08/01 09:07:15;;;;;;;2.73;0.83;;;20.10;99.90;;;;;;4838199;29;20231;-31
2022/08/01 09:09:41;;;;;;;8.23;1.60;;;20.30;99.90;;;;;;4837318;29;20287;-34
2022/08/01 09:12:06;;;;;;;9.73;1.40;;;20.40;99.90;;;;;;4834467;29;20081;-37
2022/08/01 09:14:34;;;;;;;6.93;1.58;;;20.70;99.90;;;;;;4841600;29;20073;-38
2022/08/01 09:17:10;;;;;;;5.28;1.73;;;20.90;99.90;;;;;;4833477;29;20121;-40
2022/08/01 09:19:42;;;;;;;3.45;1.25;;;21.20;99.90;;;;;;4834514;29;20029;-35
2022/08/01 09:22:10;;;;;;;3.47;1.33;;;21.40;99.90;;;;;;4831509;29;20054;-37
2022/08/01 09:24:37;;;;;;;4.18;0.93;;;21.50;99.90;;;;;;4818821;29;20538;-40
2022/08/01 09:27:25;;;;;;;3.97;1.30;;;21.30;99.90;;;;;;4836636;29;20113;-36
2022/08/01 09:29:52;;;;;;;4.25;1.20;;;21.30;99.90;;;;;;4831785;29;20500;-33
2022/08/01 09:32:19;;;;;;;3.38;1.52;;;21.50;99.90;;;;;;4833688;29;20026;-31
2022/08/01 09:34:46;;;;;;;3.23;1.17;;;21.70;99.90;;;;;;4831967;29;20137;-41
2022/08/01 09:37:13;;;;;;;3.95;1.55;;;21.90;99.90;;;;;;4832337;29;20279;-34
2022/08/01 09:39:42;;;;;;;6.28;1.48;;;22.00;99.90;;;;;;4833844;29;20073;-36
2022/08/01 09:42:25;;;;;;;9.98;1.25;;;22.30;99.90;;;;;;4833859;29;20060;-37
2022/08/01 09:44:52;;;;;;;5.32;1.05;;;22.60;99.90;;;;;;4832109;29;20053;-42
2022/08/01 09:50:04;;;;;;;6.72;1.70;;;22.60;99.90;;;;;;4830943;29;20118;-35
2022/08/01 09:52:29;;;;;;;8.90;1.27;;;22.30;99.90;;;;;;4833472;29;20117;-38
2022/08/01 09:54:59;;;;;;;4.30;1.17;;;22.20;99.90;;;;;;4838835;29;20525;-35
2022/08/01 09:57:26;;;;;;;6.25;1.35;;;22.00;99.90;;;;;;4834356;29;20490;-43
2022/08/01 09:59:54;;;;;;;3.73;1.80;;;21.80;99.90;;;;;;4830181;29;20459;-37
2022/08/01 10:02:34;;;;;;;8.43;1.20;;;21.70;99.90;;;;;;4831817;29;20042;-38
2022/08/01 10:05:02;;;;;;;6.30;1.13;;;21.70;99.90;;;;;;4836920;29;20038;-36
2022/08/01 10:07:28;;;;;;;7.72;1.42;;;21.60;99.90;;;;;;4833513;29;20065;-37
2022/08/01 10:09:53;;;;;;;6.45;1.13;;;21.80;99.90;;;;;;4831961;29;20081;-40
2022/08/01 10:12:21;;;;;;;6.25;0.95;;;22.00;99.90;;;;;;4832733;29;20030;-32
2022/08/01 10:14:55;;;;;;;;;;;22.00;99.90;;;;;;4832601;29;20034;-35
2022/08/01 10:17:25;;;;;;;9.20;1.10;;;22.00;99.90;;;;;;4832005;29;19967;-42
2022/08/01 10:19:54;;;;;;;8.88;1.30;;;22.00;99.90;;;;;;4838885;29;20025;-38
2022/08/01 10:22:23;;;;;;;5.20;0.85;;;21.80;99.90;;;;;;4836389;29;20070;-34
2022/08/01 10:24:54;;;;;;;5.95;1.75;;;21.80;99.90;;;;;;4830591;29;20487;-36
2022/08/01 10:30:08;;;;;;;6.50;1.20;;;22.00;99.90;;;;;;4829975;29;20121;-34
2022/08/01 10:32:35;;;;;;;3.45;1.17;;;22.20;99.90;;;;;;4848636;29;20036;-66
2022/08/01 10:35:01;;;;;;;4.47;1.63;;;22.10;99.90;;;;;;4849552;29;20545;-38
2022/08/01 10:37:27;;;;;;;4.13;0.88;;;21.80;99.90;;;;;;4844614;29;20037;-32
2022/08/01 10:39:55;;;;;;;7.60;1.02;;;21.70;99.90;;;;;;4833879;29;20085;-37
2022/08/01 10:42:21;;;;;;;11.98;1.95;;;21.80;99.90;;;;;;4838542;29;20503;-34
2022/08/01 10:44:47;;;;;;;2.30;1.13;;;22.00;99.90;;;;;;4831029;29;20044;-34
2022/08/01 10:47:18;;;;;;;1.85;0.90;;;22.00;99.90;;;;;;4833561;29;20033;-35
2022/08/01 10:50:11;;;;;;;5.00;1.50;;;21.90;99.90;;;;;;4843345;29;20038;-31
2022/08/01 10:52:37;;;;;;;6.03;1.27;;;22.00;99.90;;;;;;4836866;29;20034;-35
2022/08/01 10:55:04;;;;;;;3.15;1.25;;;22.00;99.90;;;;;;4836129;29;20093;-34
2022/08/01 10:57:42;;;;;;;2.50;1.08;;;21.90;99.90;;;;;;4835329;29;20034;-37
2022/08/01 11:00:08;;;;;;;7.85;1.33;;;22.00;99.90;;;;;;4842501;29;20526;-36
2022/08/01 11:02:40;;;;;;;6.75;1.23;;;22.00;99.90;;;;;;4831969;29;20030;-34
2022/08/01 11:05:19;;;;;;;6.38;1.23;;;22.10;99.90;;;;;;4834673;29;20042;-36
2022/08/01 11:07:47;;;;;;;8.05;1.65;;;22.20;99.90;;;;;;4832582;29;20338;-34
2022/08/01 11:10:37;;;;;;;4.05;1.75;;;22.00;99.90;;;;;;4835310;29;20510;-31
2022/08/01 11:13:07;;;;;;;5.90;1.92;;;21.70;99.90;;;;;;4832681;29;20046;-34
2022/08/01 11:15:33;;;;;;;4.63;1.45;;;21.50;99.90;;;;;;4833087;29;20483;-38
2022/08/01 11:18:19;;;;;;;8.02;1.30;;;21.40;99.90;;;;;;4831955;29;20548;-35
2022/08/01 11:21:02;;;;;;;7.07;1.60;;;21.40;99.90;;;;;;4830384;29;20495;-38
2022/08/01 11:23:29;;;;;;;5.05;1.20;;;21.40;99.90;;;;;;4832590;29;20037;-35
2022/08/01 11:25:54;;;;;;;12.93;2.15;;;21.50;99.90;;;;;;4830940;29;20047;-36
2022/08/01 11:28:23;;;;;;;3.83;1.27;;;21.60;99.90;;;;;;4836182;29;20139;-37
2022/08/01 11:31:16;;;;;;;15.38;2.03;;;21.60;99.90;;;;;;4830663;29;20030;-39
2022/08/01 11:33:41;;;;;;;10.40;1.50;;;21.70;99.90;;;;;;4836729;29;20027;-38
2022/08/01 11:36:10;;;;;;;6.28;1.80;;;21.80;99.90;;;;;;4842495;29;20696;-37
2022/08/01 11:38:37;;;;;;;6.43;1.00;;;21.80;99.90;;;;;;4849482;29;20038;-33
2022/08/01 11:41:23;;;;;;;7.70;1.10;;;21.90;99.90;;;;;;4834498;29;20096;-38
2022/08/01 11:44:06;;;;;;;8.93;1.88;;;22.10;99.90;;;;;;4818015;29;20479;-30
2022/08/01 11:46:55;;;;;;;0.70;0.70;;;22.30;99.90;;;;;;4837637;29;20558;-31
2022/08/01 11:49:47;;;;;;;1.40;0.45;;;22.40;99.90;;;;;;4833923;29;20562;-33
2022/08/01 11:52:15;;;;;;;3.10;0.80;;;22.30;99.90;;;;;;4843342;29;20033;-36
2022/08/01 11:54:43;;;;;;;2.72;1.33;;;22.40;99.90;;;;;;4836829;29;20086;-40
2022/08/01 11:57:19;;;;;;;2.35;0.60;;;22.60;99.90;;;;;;4818508;29;20536;-35
2022/08/01 11:59:48;;;;;;;1.50;0.80;;;22.70;99.90;;;;;;4832876;29;20026;-34
2022/08/01 12:02:18;;;;;;;4.43;0.75;;;22.60;99.30;;;;;;4845276;29;20033;-32
2022/08/01 12:04:49;;;;;;;3.33;0.60;;;22.60;98.70;;;;;;4831878;29;20032;-35
2022/08/01 12:07:15;;;;;;;2.60;0.90;;;22.80;99.20;;;;;;4835286;29;20082;-35
2022/08/01 12:09:41;;;;;;;1.87;0.60;;;23.10;98.70;;;;;;4842718;29;20105;-31
2022/08/01 12:12:07;;;;;;;1.17;0.60;;;23.20;98.70;;;;;;4834809;29;20366;-37
2022/08/01 12:14:33;;;;;;;1.98;0.50;;;23.40;98.80;;;;;;4833715;29;20106;-41
2022/08/01 12:16:58;;;;;;;1.98;0.63;;;23.50;98.80;;;;;;4840068;29;20120;-39
2022/08/01 12:19:24;;;;;;;1.40;0.65;;;23.70;98.50;;;;;;4832578;29;20349;-34
2022/08/01 12:22:07;;;;;;;3.05;0.98;;;23.60;98.10;;;;;;4834750;29;20435;-35
2022/08/01 12:24:36;;;;;;;3.63;0.70;;;23.50;98.00;;;;;;4834135;29;20081;-33
2022/08/01 12:27:04;;;;;;;1.88;0.70;;;23.70;97.70;;;;;;4831061;29;20040;-38
2022/08/01 12:29:41;;;;;;;1.27;0.60;;;23.80;97.40;;;;;;4840552;29;20034;-35
2022/08/01 12:32:30;;;;;;;2.75;0.93;;;23.80;95.50;;;;;;4846203;29;20030;-34
2022/08/01 12:35:01;;;;;;;1.10;0.55;;;23.80;96.80;;;;;;4838123;29;20407;-37
2022/08/01 12:37:26;;;;;;;3.05;1.10;;;23.80;95.50;;;;;;4832246;29;20501;-38
2022/08/01 12:39:53;;;;;;;2.95;1.40;;;23.80;95.90;;;;;;4832337;29;20117;-36
2022/08/01 12:42:18;;;;;;;2.42;0.93;;;23.80;96.60;;;;;;4842855;29;20046;-31
2022/08/01 12:44:47;;;;;;;2.30;0.80;;;23.80;96.90;;;;;;4831654;29;20033;-39
2022/08/01 12:47:32;;;;;;;2.30;0.63;;;23.80;96.70;;;;;;4833820;29;20034;-33
2022/08/01 12:49:58;;;;;;;3.05;0.75;;;24.00;97.00;;;;;;4841986;29;20042;-39
2022/08/01 12:52:24;;;;;;;3.20;0.60;;;24.20;96.60;;;;;;4834002;29;20040;-36
2022/08/01 12:55:05;;;;;;;3.95;1.35;;;24.30;96.60;;;;;;4833597;29;20038;-40
2022/08/01 12:57:31;;;;;;;3.42;1.17;;;24.10;96.90;;;;;;4839392;29;20060;-33
2022/08/01 13:00:19;;;;;;;1.60;0.80;;;23.90;96.80;;;;;;4832030;29;21366;-38
2022/08/01 13:02:47;;;;;;;2.83;1.15;;;23.90;95.30;;;;;;4817850;29;20045;-47